Timberlake, Ohio
Current Conditions -  °F | °C
As of 10:45 PM on Saturday 25 Oct 2014 (Local Time) from KCGF Reporting Station
Clear Clear  
Wind Chill: 59°   Ceiling: Unl
Heat Index: 59°   Visibility: 10mi
Dew Point: 43°   Wind: 12mph
Humidity: 55%   Direction: 310°NW
Pressure: 29.8"   Gusts: 23mph
Location:  41.6454°N, 81.4495°W
Report Text: KCGF 260245Z 31010G20KT 10SM SKC 15/06 A2980
Loading
Personal Weather Stations






























Interactive Weather Map
Tropical Storm Tracking
New forecast layout! Learn more

10-Day Weather Forecast

Advertisements
Track Severe Weather on mobile